sensor_id;sensor_type;location;lat;lon;timestamp;temperature;humidity
41592;DHT22;28026;48.562;14.440;2023-07-20T00:00:10;17.30;99.90
41592;DHT22;28026;48.562;14.440;2023-07-20T00:02:44;17.20;99.90
41592;DHT22;28026;48.562;14.440;2023-07-20T00:05:15;17.20;99.90
41592;DHT22;28026;48.562;14.440;2023-07-20T00:07:48;17.20;99.90
41592;DHT22;28026;48.562;14.440;2023-07-20T00:10:22;17.30;99.90
41592;DHT22;28026;48.562;14.440;2023-07-20T00:12:53;17.20;99.90
41592;DHT22;28026;48.562;14.440;2023-07-20T00:15:24;17.10;99.90
41592;DHT22;28026;48.562;14.440;2023-07-20T00:17:54;16.70;99.90
41592;DHT22;28026;48.562;14.440;2023-07-20T00:20:25;16.40;99.90
41592;DHT22;28026;48.562;14.440;2023-07-20T00:22:57;16.10;99.90
41592;DHT22;28026;48.562;14.440;2023-07-20T00:25:28;15.90;99.90
41592;DHT22;28026;48.562;14.440;2023-07-20T00:27:59;15.90;99.90
41592;DHT22;28026;48.562;14.440;2023-07-20T00:30:30;16.10;99.90
41592;DHT22;28026;48.562;14.440;2023-07-20T00:33:01;16.30;99.90
41592;DHT22;28026;48.562;14.440;2023-07-20T00:35:32;16.30;99.90
41592;DHT22;28026;48.562;14.440;2023-07-20T00:38:04;16.30;99.90
41592;DHT22;28026;48.562;14.440;2023-07-20T00:40:36;16.30;99.90
41592;DHT22;28026;48.562;14.440;2023-07-20T00:43:11;16.30;99.90
41592;DHT22;28026;48.562;14.440;2023-07-20T00:45:42;16.30;99.90
41592;DHT22;28026;48.562;14.440;2023-07-20T00:48:15;16.50;99.90
41592;DHT22;28026;48.562;14.440;2023-07-20T00:50:46;16.70;99.90
41592;DHT22;28026;48.562;14.440;2023-07-20T00:53:18;16.80;99.90
41592;DHT22;28026;48.562;14.440;2023-07-20T00:55:49;16.80;99.90
41592;DHT22;28026;48.562;14.440;2023-07-20T00:58:20;16.40;99.90
41592;DHT22;28026;48.562;14.440;2023-07-20T01:00:52;16.30;99.90
41592;DHT22;28026;48.562;14.440;2023-07-20T01:03:23;16.40;99.90
41592;DHT22;28026;48.562;14.440;2023-07-20T01:09:18;16.20;99.90
41592;DHT22;28026;48.562;14.440;2023-07-20T01:15:18;16.70;99.90
41592;DHT22;28026;48.562;14.440;2023-07-20T01:17:49;16.60;99.90
41592;DHT22;28026;48.562;14.440;2023-07-20T01:20:21;16.40;99.90
41592;DHT22;28026;48.562;14.440;2023-07-20T01:29:55;16.30;99.90
41592;DHT22;28026;48.562;14.440;2023-07-20T01:32:47;16.50;99.90
41592;DHT22;28026;48.562;14.440;2023-07-20T01:35:20;16.50;99.90
41592;DHT22;28026;48.562;14.440;2023-07-20T01:37:59;16.60;99.90
41592;DHT22;28026;48.562;14.440;2023-07-20T01:40:32;16.50;99.90
41592;DHT22;28026;48.562;14.440;2023-07-20T01:43:03;16.30;99.90
41592;DHT22;28026;48.562;14.440;2023-07-20T01:45:34;16.30;99.90
41592;DHT22;28026;48.562;14.440;2023-07-20T01:48:05;16.30;99.90
41592;DHT22;28026;48.562;14.440;2023-07-20T01:50:36;16.30;99.90
41592;DHT22;28026;48.562;14.440;2023-07-20T01:53:07;16.20;99.90
41592;DHT22;28026;48.562;14.440;2023-07-20T01:55:38;16.30;99.90
41592;DHT22;28026;48.562;14.440;2023-07-20T01:58:09;16.30;99.90
41592;DHT22;28026;48.562;14.440;2023-07-20T02:00:40;16.40;99.90
41592;DHT22;28026;48.562;14.440;2023-07-20T02:03:11;16.40;99.90
41592;DHT22;28026;48.562;14.440;2023-07-20T02:05:45;16.50;99.90
41592;DHT22;28026;48.562;14.440;2023-07-20T02:08:16;16.60;99.90
41592;DHT22;28026;48.562;14.440;2023-07-20T02:10:48;16.60;99.90
41592;DHT22;28026;48.562;14.440;2023-07-20T02:13:19;16.60;99.90
41592;DHT22;28026;48.562;14.440;2023-07-20T02:15:50;16.60;99.90
41592;DHT22;28026;48.562;14.440;2023-07-20T02:18:21;16.50;99.90
41592;DHT22;28026;48.562;14.440;2023-07-20T02:20:53;16.60;99.90
41592;DHT22;28026;48.562;14.440;2023-07-20T02:23:24;16.60;99.90
41592;DHT22;28026;48.562;14.440;2023-07-20T02:25:55;16.50;99.90
41592;DHT22;28026;48.562;14.440;2023-07-20T02:28:26;16.40;99.90
41592;DHT22;28026;48.562;14.440;2023-07-20T02:30:57;16.30;99.90
41592;DHT22;28026;48.562;14.440;2023-07-20T02:33:28;16.30;99.90
41592;DHT22;28026;48.562;14.440;2023-07-20T02:35:59;16.40;99.90
41592;DHT22;28026;48.562;14.440;2023-07-20T02:38:30;16.50;99.90
41592;DHT22;28026;48.562;14.440;2023-07-20T02:41:00;16.50;99.90
41592;DHT22;28026;48.562;14.440;2023-07-20T02:43:31;16.60;99.90
41592;DHT22;28026;48.562;14.440;2023-07-20T02:46:02;16.60;99.90
41592;DHT22;28026;48.562;14.440;2023-07-20T02:48:33;16.60;99.90
41592;DHT22;28026;48.562;14.440;2023-07-20T02:51:04;16.70;99.90
41592;DHT22;28026;48.562;14.440;2023-07-20T02:53:34;16.70;99.90
41592;DHT22;28026;48.562;14.440;2023-07-20T02:56:06;16.70;99.90
41592;DHT22;28026;48.562;14.440;2023-07-20T02:58:41;16.80;99.90
41592;DHT22;28026;48.562;14.440;2023-07-20T03:01:14;16.90;99.90
41592;DHT22;28026;48.562;14.440;2023-07-20T03:03:45;17.00;99.90
41592;DHT22;28026;48.562;14.440;2023-07-20T03:06:17;16.90;99.90
41592;DHT22;28026;48.562;14.440;2023-07-20T03:08:48;16.90;99.90
41592;DHT22;28026;48.562;14.440;2023-07-20T03:11:23;16.80;99.90
41592;DHT22;28026;48.562;14.440;2023-07-20T03:13:54;16.80;99.90
41592;DHT22;28026;48.562;14.440;2023-07-20T03:16:26;16.90;99.90
41592;DHT22;28026;48.562;14.440;2023-07-20T03:18:56;16.70;99.90
41592;DHT22;28026;48.562;14.440;2023-07-20T03:21:27;16.70;99.90
41592;DHT22;28026;48.562;14.440;2023-07-20T03:23:59;16.70;99.90
41592;DHT22;28026;48.562;14.440;2023-07-20T03:26:30;16.70;99.90
41592;DHT22;28026;48.562;14.440;2023-07-20T03:29:01;16.60;99.90
41592;DHT22;28026;48.562;14.440;2023-07-20T03:31:32;16.60;99.90
41592;DHT22;28026;48.562;14.440;2023-07-20T03:34:03;16.60;99.90
41592;DHT22;28026;48.562;14.440;2023-07-20T03:36:35;16.30;99.90
41592;DHT22;28026;48.562;14.440;2023-07-20T03:39:06;16.30;99.90
41592;DHT22;28026;48.562;14.440;2023-07-20T03:41:37;16.40;99.90
41592;DHT22;28026;48.562;14.440;2023-07-20T03:44:08;16.40;99.90
41592;DHT22;28026;48.562;14.440;2023-07-20T03:46:39;16.30;99.90
41592;DHT22;28026;48.562;14.440;2023-07-20T03:49:10;16.20;99.90
41592;DHT22;28026;48.562;14.440;2023-07-20T03:51:40;16.30;99.90
41592;DHT22;28026;48.562;14.440;2023-07-20T03:54:11;16.30;99.90
41592;DHT22;28026;48.562;14.440;2023-07-20T03:56:42;16.30;99.90
41592;DHT22;28026;48.562;14.440;2023-07-20T03:59:13;16.30;99.90
41592;DHT22;28026;48.562;14.440;2023-07-20T04:01:44;16.40;99.90
41592;DHT22;28026;48.562;14.440;2023-07-20T04:04:16;16.30;99.90
41592;DHT22;28026;48.562;14.440;2023-07-20T04:06:47;16.30;99.90
41592;DHT22;28026;48.562;14.440;2023-07-20T04:09:18;16.30;99.90
41592;DHT22;28026;48.562;14.440;2023-07-20T04:11:49;16.30;99.90
41592;DHT22;28026;48.562;14.440;2023-07-20T04:14:20;16.30;99.90
41592;DHT22;28026;48.562;14.440;2023-07-20T04:16:51;16.30;99.90
41592;DHT22;28026;48.562;14.440;2023-07-20T04:19:22;16.30;99.90
41592;DHT22;28026;48.562;14.440;2023-07-20T04:21:53;16.40;99.90
41592;DHT22;28026;48.562;14.440;2023-07-20T04:24:24;16.60;99.90
41592;DHT22;28026;48.562;14.440;2023-07-20T04:26:55;16.60;99.90
41592;DHT22;28026;48.562;14.440;2023-07-20T04:29:26;16.60;99.90
41592;DHT22;28026;48.562;14.440;2023-07-20T04:31:56;16.50;99.90
41592;DHT22;28026;48.562;14.440;2023-07-20T04:34:27;16.60;99.90
41592;DHT22;28026;48.562;14.440;2023-07-20T04:36:58;16.60;99.90
41592;DHT22;28026;48.562;14.440;2023-07-20T04:39:29;16.60;99.90
41592;DHT22;28026;48.562;14.440;2023-07-20T04:42:01;16.70;99.90
41592;DHT22;28026;48.562;14.440;2023-07-20T04:44:31;16.70;99.90
41592;DHT22;28026;48.562;14.440;2023-07-20T04:47:02;16.80;99.90
41592;DHT22;28026;48.562;14.440;2023-07-20T04:49:34;17.00;99.90
41592;DHT22;28026;48.562;14.440;2023-07-20T04:52:05;17.10;99.90
41592;DHT22;28026;48.562;14.440;2023-07-20T04:54:36;17.20;99.90
41592;DHT22;28026;48.562;14.440;2023-07-20T04:57:10;17.40;99.90
41592;DHT22;28026;48.562;14.440;2023-07-20T04:59:43;17.50;99.90
41592;DHT22;28026;48.562;14.440;2023-07-20T05:02:14;17.40;99.90
41592;DHT22;28026;48.562;14.440;2023-07-20T05:04:45;17.40;99.90
41592;DHT22;28026;48.562;14.440;2023-07-20T05:07:15;17.50;99.90
41592;DHT22;28026;48.562;14.440;2023-07-20T05:09:46;17.70;99.90
41592;DHT22;28026;48.562;14.440;2023-07-20T05:12:17;17.70;99.90
41592;DHT22;28026;48.562;14.440;2023-07-20T05:14:48;17.90;99.90
41592;DHT22;28026;48.562;14.440;2023-07-20T05:17:19;17.90;99.90
41592;DHT22;28026;48.562;14.440;2023-07-20T05:19:50;17.80;99.90
41592;DHT22;28026;48.562;14.440;2023-07-20T05:22:21;17.80;99.90
41592;DHT22;28026;48.562;14.440;2023-07-20T05:24:52;17.90;99.90
41592;DHT22;28026;48.562;14.440;2023-07-20T05:27:23;17.90;99.90
41592;DHT22;28026;48.562;14.440;2023-07-20T05:29:54;17.90;99.90
41592;DHT22;28026;48.562;14.440;2023-07-20T05:32:25;18.00;99.90
41592;DHT22;28026;48.562;14.440;2023-07-20T05:34:56;17.90;99.90
41592;DHT22;28026;48.562;14.440;2023-07-20T05:37:27;18.00;99.90
41592;DHT22;28026;48.562;14.440;2023-07-20T05:39:58;18.00;99.90
41592;DHT22;28026;48.562;14.440;2023-07-20T05:42:28;18.30;99.90
41592;DHT22;28026;48.562;14.440;2023-07-20T05:44:59;18.00;99.90
41592;DHT22;28026;48.562;14.440;2023-07-20T05:47:30;17.80;99.90
41592;DHT22;28026;48.562;14.440;2023-07-20T05:50:02;18.00;99.90
41592;DHT22;28026;48.562;14.440;2023-07-20T05:52:33;18.00;99.90
41592;DHT22;28026;48.562;14.440;2023-07-20T05:55:05;18.20;99.90
41592;DHT22;28026;48.562;14.440;2023-07-20T05:57:37;18.50;99.90
41592;DHT22;28026;48.562;14.440;2023-07-20T06:00:12;18.50;99.90
41592;DHT22;28026;48.562;14.440;2023-07-20T06:02:44;18.50;99.90
41592;DHT22;28026;48.562;14.440;2023-07-20T06:05:15;18.70;99.90
41592;DHT22;28026;48.562;14.440;2023-07-20T06:07:46;18.90;99.90
41592;DHT22;28026;48.562;14.440;2023-07-20T06:10:17;18.80;99.90
41592;DHT22;28026;48.562;14.440;2023-07-20T06:12:48;18.80;99.90
41592;DHT22;28026;48.562;14.440;2023-07-20T06:15:31;18.80;99.90
41592;DHT22;28026;48.562;14.440;2023-07-20T06:18:05;18.60;99.90
41592;DHT22;28026;48.562;14.440;2023-07-20T06:20:36;18.50;99.90
41592;DHT22;28026;48.562;14.440;2023-07-20T06:23:06;18.30;99.90
41592;DHT22;28026;48.562;14.440;2023-07-20T06:25:37;18.40;99.90
41592;DHT22;28026;48.562;14.440;2023-07-20T06:28:08;18.30;99.90
41592;DHT22;28026;48.562;14.440;2023-07-20T06:30:39;18.20;99.90
41592;DHT22;28026;48.562;14.440;2023-07-20T06:33:10;18.10;99.90
41592;DHT22;28026;48.562;14.440;2023-07-20T06:35:41;18.00;99.90
41592;DHT22;28026;48.562;14.440;2023-07-20T06:38:13;17.90;99.90
41592;DHT22;28026;48.562;14.440;2023-07-20T06:40:46;17.90;99.90
41592;DHT22;28026;48.562;14.440;2023-07-20T06:43:17;17.90;99.90
41592;DHT22;28026;48.562;14.440;2023-07-20T06:45:52;18.00;99.90
41592;DHT22;28026;48.562;14.440;2023-07-20T06:48:27;17.90;99.90
41592;DHT22;28026;48.562;14.440;2023-07-20T06:50:57;18.10;99.90
41592;DHT22;28026;48.562;14.440;2023-07-20T06:53:30;17.80;99.90
41592;DHT22;28026;48.562;14.440;2023-07-20T06:56:01;18.00;99.90
41592;DHT22;28026;48.562;14.440;2023-07-20T06:58:32;18.00;99.90
41592;DHT22;28026;48.562;14.440;2023-07-20T07:01:08;18.10;99.90
41592;DHT22;28026;48.562;14.440;2023-07-20T07:03:39;18.10;99.90
41592;DHT22;28026;48.562;14.440;2023-07-20T07:06:10;18.30;99.90
41592;DHT22;28026;48.562;14.440;2023-07-20T07:08:40;18.20;99.90
41592;DHT22;28026;48.562;14.440;2023-07-20T07:11:13;18.50;99.90
41592;DHT22;28026;48.562;14.440;2023-07-20T07:13:44;18.70;99.90
41592;DHT22;28026;48.562;14.440;2023-07-20T07:16:17;18.70;99.90
41592;DHT22;28026;48.562;14.440;2023-07-20T07:18:51;18.60;99.90
41592;DHT22;28026;48.562;14.440;2023-07-20T07:21:21;18.60;99.90
41592;DHT22;28026;48.562;14.440;2023-07-20T07:23:52;18.60;99.90
41592;DHT22;28026;48.562;14.440;2023-07-20T07:26:24;18.80;99.90
41592;DHT22;28026;48.562;14.440;2023-07-20T07:28:56;18.90;99.90
41592;DHT22;28026;48.562;14.440;2023-07-20T07:31:28;18.90;99.90
41592;DHT22;28026;48.562;14.440;2023-07-20T07:34:00;18.90;99.90
41592;DHT22;28026;48.562;14.440;2023-07-20T07:36:33;19.00;99.90
41592;DHT22;28026;48.562;14.440;2023-07-20T07:39:04;19.20;99.90
41592;DHT22;28026;48.562;14.440;2023-07-20T07:41:35;19.10;99.90
41592;DHT22;28026;48.562;14.440;2023-07-20T07:44:06;19.00;99.90
41592;DHT22;28026;48.562;14.440;2023-07-20T07:46:37;18.70;99.90
41592;DHT22;28026;48.562;14.440;2023-07-20T07:49:08;18.60;99.90
41592;DHT22;28026;48.562;14.440;2023-07-20T07:51:39;19.10;99.90
41592;DHT22;28026;48.562;14.440;2023-07-20T07:54:09;19.30;99.90
41592;DHT22;28026;48.562;14.440;2023-07-20T07:56:41;19.30;99.90
41592;DHT22;28026;48.562;14.440;2023-07-20T07:59:13;19.30;99.90
41592;DHT22;28026;48.562;14.440;2023-07-20T08:01:44;19.30;99.90
41592;DHT22;28026;48.562;14.440;2023-07-20T08:04:15;19.00;99.90
41592;DHT22;28026;48.562;14.440;2023-07-20T08:06:45;19.30;99.90
41592;DHT22;28026;48.562;14.440;2023-07-20T08:09:16;19.20;99.90
41592;DHT22;28026;48.562;14.440;2023-07-20T08:11:47;19.10;99.90
41592;DHT22;28026;48.562;14.440;2023-07-20T08:14:20;19.40;99.90
41592;DHT22;28026;48.562;14.440;2023-07-20T08:16:51;19.60;99.90
41592;DHT22;28026;48.562;14.440;2023-07-20T08:19:22;19.70;99.90
41592;DHT22;28026;48.562;14.440;2023-07-20T08:21:54;19.70;99.90
41592;DHT22;28026;48.562;14.440;2023-07-20T08:24:25;20.10;99.90
41592;DHT22;28026;48.562;14.440;2023-07-20T08:26:55;20.20;99.90
41592;DHT22;28026;48.562;14.440;2023-07-20T08:29:26;20.80;99.90
41592;DHT22;28026;48.562;14.440;2023-07-20T08:31:57;20.80;99.90
41592;DHT22;28026;48.562;14.440;2023-07-20T08:34:28;20.00;99.90
41592;DHT22;28026;48.562;14.440;2023-07-20T08:36:59;19.50;99.90
41592;DHT22;28026;48.562;14.440;2023-07-20T08:39:30;20.10;99.90
41592;DHT22;28026;48.562;14.440;2023-07-20T08:42:01;20.70;99.90
41592;DHT22;28026;48.562;14.440;2023-07-20T08:44:41;21.10;99.90
41592;DHT22;28026;48.562;14.440;2023-07-20T08:47:16;21.40;99.90
41592;DHT22;28026;48.562;14.440;2023-07-20T08:49:48;21.30;99.90
41592;DHT22;28026;48.562;14.440;2023-07-20T08:52:20;21.00;99.90
41592;DHT22;28026;48.562;14.440;2023-07-20T08:54:52;21.80;99.90
41592;DHT22;28026;48.562;14.440;2023-07-20T08:57:24;22.10;99.90
41592;DHT22;28026;48.562;14.440;2023-07-20T08:59:56;22.50;99.90
41592;DHT22;28026;48.562;14.440;2023-07-20T09:02:28;22.20;99.90
41592;DHT22;28026;48.562;14.440;2023-07-20T09:04:59;21.60;99.90
41592;DHT22;28026;48.562;14.440;2023-07-20T09:07:31;21.80;99.90
41592;DHT22;28026;48.562;14.440;2023-07-20T09:10:03;21.90;99.90
41592;DHT22;28026;48.562;14.440;2023-07-20T09:12:38;21.90;99.90
41592;DHT22;28026;48.562;14.440;2023-07-20T09:15:11;21.90;99.90
41592;DHT22;28026;48.562;14.440;2023-07-20T09:17:50;22.10;99.90
41592;DHT22;28026;48.562;14.440;2023-07-20T09:20:24;21.60;99.90
41592;DHT22;28026;48.562;14.440;2023-07-20T09:22:56;21.80;99.90
41592;DHT22;28026;48.562;14.440;2023-07-20T09:25:27;21.10;99.90
41592;DHT22;28026;48.562;14.440;2023-07-20T09:28:02;21.60;99.90
41592;DHT22;28026;48.562;14.440;2023-07-20T09:30:34;22.00;99.90
41592;DHT22;28026;48.562;14.440;2023-07-20T09:33:05;22.60;99.90
41592;DHT22;28026;48.562;14.440;2023-07-20T09:35:49;22.60;99.90
41592;DHT22;28026;48.562;14.440;2023-07-20T09:38:20;22.20;99.90
41592;DHT22;28026;48.562;14.440;2023-07-20T09:40:51;21.60;99.90
41592;DHT22;28026;48.562;14.440;2023-07-20T09:43:22;22.60;99.90
41592;DHT22;28026;48.562;14.440;2023-07-20T09:45:58;22.50;99.90
41592;DHT22;28026;48.562;14.440;2023-07-20T09:48:29;22.70;99.90
41592;DHT22;28026;48.562;14.440;2023-07-20T09:51:01;22.60;99.90
41592;DHT22;28026;48.562;14.440;2023-07-20T09:53:34;22.70;99.90
41592;DHT22;28026;48.562;14.440;2023-07-20T09:56:05;22.80;99.90
41592;DHT22;28026;48.562;14.440;2023-07-20T09:58:37;22.80;99.90
41592;DHT22;28026;48.562;14.440;2023-07-20T10:01:10;23.00;99.90
41592;DHT22;28026;48.562;14.440;2023-07-20T10:03:47;23.50;99.90
41592;DHT22;28026;48.562;14.440;2023-07-20T10:06:26;23.20;99.90
41592;DHT22;28026;48.562;14.440;2023-07-20T10:09:03;23.80;99.90
41592;DHT22;28026;48.562;14.440;2023-07-20T10:11:37;23.30;99.90
41592;DHT22;28026;48.562;14.440;2023-07-20T10:14:20;23.00;99.90
41592;DHT22;28026;48.562;14.440;2023-07-20T10:16:57;23.00;99.90
41592;DHT22;28026;48.562;14.440;2023-07-20T10:22:27;22.70;99.90
41592;DHT22;28026;48.562;14.440;2023-07-20T10:25:06;22.30;99.90
41592;DHT22;28026;48.562;14.440;2023-07-20T10:27:38;22.90;99.90
41592;DHT22;28026;48.562;14.440;2023-07-20T10:30:10;22.80;99.90
41592;DHT22;28026;48.562;14.440;2023-07-20T10:32:42;22.20;99.90
41592;DHT22;28026;48.562;14.440;2023-07-20T10:35:16;21.90;99.90
41592;DHT22;28026;48.562;14.440;2023-07-20T10:38:08;22.60;99.90
41592;DHT22;28026;48.562;14.440;2023-07-20T10:40:39;23.30;99.90
41592;DHT22;28026;48.562;14.440;2023-07-20T10:43:10;23.10;99.90
41592;DHT22;28026;48.562;14.440;2023-07-20T10:45:52;22.80;99.90
41592;DHT22;28026;48.562;14.440;2023-07-20T10:48:24;22.90;99.90
41592;DHT22;28026;48.562;14.440;2023-07-20T10:51:12;23.30;99.90
41592;DHT22;28026;48.562;14.440;2023-07-20T10:53:50;23.60;99.90
41592;DHT22;28026;48.562;14.440;2023-07-20T10:56:24;22.70;99.90
41592;DHT22;28026;48.562;14.440;2023-07-20T10:59:00;23.20;99.90
41592;DHT22;28026;48.562;14.440;2023-07-20T11:01:36;22.80;99.90
41592;DHT22;28026;48.562;14.440;2023-07-20T11:04:08;22.70;99.90
41592;DHT22;28026;48.562;14.440;2023-07-20T11:06:43;22.80;99.90
41592;DHT22;28026;48.562;14.440;2023-07-20T11:09:14;23.20;99.90
41592;DHT22;28026;48.562;14.440;2023-07-20T11:11:49;23.40;99.90
41592;DHT22;28026;48.562;14.440;2023-07-20T11:14:21;23.20;99.90
41592;DHT22;28026;48.562;14.440;2023-07-20T11:16:54;22.80;99.90
41592;DHT22;28026;48.562;14.440;2023-07-20T11:19:26;23.20;99.90
41592;DHT22;28026;48.562;14.440;2023-07-20T11:21:57;23.70;99.90
41592;DHT22;28026;48.562;14.440;2023-07-20T11:24:29;24.00;99.90
41592;DHT22;28026;48.562;14.440;2023-07-20T11:27:01;24.00;99.90
41592;DHT22;28026;48.562;14.440;2023-07-20T11:29:32;23.20;99.90
41592;DHT22;28026;48.562;14.440;2023-07-20T11:32:05;23.50;99.90
41592;DHT22;28026;48.562;14.440;2023-07-20T11:34:37;22.80;99.90
41592;DHT22;28026;48.562;14.440;2023-07-20T11:37:07;22.20;99.90
41592;DHT22;28026;48.562;14.440;2023-07-20T11:39:38;22.70;99.90
41592;DHT22;28026;48.562;14.440;2023-07-20T11:42:10;22.90;99.90
41592;DHT22;28026;48.562;14.440;2023-07-20T11:44:42;23.20;99.90
41592;DHT22;28026;48.562;14.440;2023-07-20T11:47:13;24.00;99.90
41592;DHT22;28026;48.562;14.440;2023-07-20T11:49:44;23.60;99.90
41592;DHT22;28026;48.562;14.440;2023-07-20T11:52:19;23.20;99.90
41592;DHT22;28026;48.562;14.440;2023-07-20T11:54:52;24.00;99.90
41592;DHT22;28026;48.562;14.440;2023-07-20T11:57:23;23.60;99.90
41592;DHT22;28026;48.562;14.440;2023-07-20T12:00:00;23.60;99.90
41592;DHT22;28026;48.562;14.440;2023-07-20T12:02:39;23.60;99.90
41592;DHT22;28026;48.562;14.440;2023-07-20T12:05:11;24.40;99.90
41592;DHT22;28026;48.562;14.440;2023-07-20T12:07:43;24.40;99.90
41592;DHT22;28026;48.562;14.440;2023-07-20T12:10:14;24.80;99.90
41592;DHT22;28026;48.562;14.440;2023-07-20T12:12:45;25.40;99.90
41592;DHT22;28026;48.562;14.440;2023-07-20T12:15:26;24.40;99.90
41592;DHT22;28026;48.562;14.440;2023-07-20T12:18:01;24.10;99.90
41592;DHT22;28026;48.562;14.440;2023-07-20T12:20:37;23.30;99.90
41592;DHT22;28026;48.562;14.440;2023-07-20T12:23:10;24.00;99.90
41592;DHT22;28026;48.562;14.440;2023-07-20T12:25:44;24.70;99.90
41592;DHT22;28026;48.562;14.440;2023-07-20T12:28:19;24.70;99.90
41592;DHT22;28026;48.562;14.440;2023-07-20T12:30:50;24.40;99.90
41592;DHT22;28026;48.562;14.440;2023-07-20T12:33:26;24.00;99.90
41592;DHT22;28026;48.562;14.440;2023-07-20T12:35:57;24.50;99.90
41592;DHT22;28026;48.562;14.440;2023-07-20T12:38:29;23.90;99.90
41592;DHT22;28026;48.562;14.440;2023-07-20T12:41:03;24.20;99.90
41592;DHT22;28026;48.562;14.440;2023-07-20T12:43:34;25.10;99.90
41592;DHT22;28026;48.562;14.440;2023-07-20T12:46:06;25.10;99.90
41592;DHT22;28026;48.562;14.440;2023-07-20T12:48:38;23.90;99.90
41592;DHT22;28026;48.562;14.440;2023-07-20T12:51:11;24.10;99.90
41592;DHT22;28026;48.562;14.440;2023-07-20T12:53:43;23.80;99.90
41592;DHT22;28026;48.562;14.440;2023-07-20T12:56:14;24.30;99.90
41592;DHT22;28026;48.562;14.440;2023-07-20T12:58:45;24.90;99.90
41592;DHT22;28026;48.562;14.440;2023-07-20T13:01:16;24.90;99.90
41592;DHT22;28026;48.562;14.440;2023-07-20T13:03:47;24.00;99.90
41592;DHT22;28026;48.562;14.440;2023-07-20T13:06:18;23.30;99.90
41592;DHT22;28026;48.562;14.440;2023-07-20T13:08:49;24.20;99.90
41592;DHT22;28026;48.562;14.440;2023-07-20T13:11:25;24.00;99.90
41592;DHT22;28026;48.562;14.440;2023-07-20T13:13:56;24.90;99.90
41592;DHT22;28026;48.562;14.440;2023-07-20T13:16:27;24.30;99.90
41592;DHT22;28026;48.562;14.440;2023-07-20T13:18:58;24.50;99.90
41592;DHT22;28026;48.562;14.440;2023-07-20T13:21:29;24.30;99.90
41592;DHT22;28026;48.562;14.440;2023-07-20T13:24:00;23.40;99.90
41592;DHT22;28026;48.562;14.440;2023-07-20T13:26:31;24.00;99.90
41592;DHT22;28026;48.562;14.440;2023-07-20T13:29:01;23.90;99.90
41592;DHT22;28026;48.562;14.440;2023-07-20T13:31:33;24.00;99.90
41592;DHT22;28026;48.562;14.440;2023-07-20T13:34:04;23.20;99.90
41592;DHT22;28026;48.562;14.440;2023-07-20T13:36:36;23.80;99.90
41592;DHT22;28026;48.562;14.440;2023-07-20T13:39:07;23.40;99.90
41592;DHT22;28026;48.562;14.440;2023-07-20T13:41:39;22.60;99.90
41592;DHT22;28026;48.562;14.440;2023-07-20T13:44:10;22.60;99.90
41592;DHT22;28026;48.562;14.440;2023-07-20T13:46:41;22.70;99.90
41592;DHT22;28026;48.562;14.440;2023-07-20T13:49:11;22.60;99.90
41592;DHT22;28026;48.562;14.440;2023-07-20T13:51:42;23.10;99.90
41592;DHT22;28026;48.562;14.440;2023-07-20T13:54:13;22.90;99.90
41592;DHT22;28026;48.562;14.440;2023-07-20T13:56:44;23.10;99.90
41592;DHT22;28026;48.562;14.440;2023-07-20T13:59:15;23.20;99.90
41592;DHT22;28026;48.562;14.440;2023-07-20T14:01:46;23.70;99.90
41592;DHT22;28026;48.562;14.440;2023-07-20T14:04:17;23.90;99.90
41592;DHT22;28026;48.562;14.440;2023-07-20T14:06:51;23.70;99.90
41592;DHT22;28026;48.562;14.440;2023-07-20T14:09:22;23.90;99.90
41592;DHT22;28026;48.562;14.440;2023-07-20T14:11:53;23.90;99.90
41592;DHT22;28026;48.562;14.440;2023-07-20T14:14:24;24.20;99.90
41592;DHT22;28026;48.562;14.440;2023-07-20T14:16:55;24.20;99.90
41592;DHT22;28026;48.562;14.440;2023-07-20T14:19:26;24.30;99.90
41592;DHT22;28026;48.562;14.440;2023-07-20T14:21:57;24.60;99.90
41592;DHT22;28026;48.562;14.440;2023-07-20T14:24:30;25.20;99.70
41592;DHT22;28026;48.562;14.440;2023-07-20T14:27:00;25.40;99.90
41592;DHT22;28026;48.562;14.440;2023-07-20T14:29:31;24.80;98.80
41592;DHT22;28026;48.562;14.440;2023-07-20T14:32:03;23.90;99.30
41592;DHT22;28026;48.562;14.440;2023-07-20T14:34:36;24.60;99.10
41592;DHT22;28026;48.562;14.440;2023-07-20T14:37:07;24.60;99.90
41592;DHT22;28026;48.562;14.440;2023-07-20T14:39:38;24.50;99.20
41592;DHT22;28026;48.562;14.440;2023-07-20T14:42:09;24.30;99.20
41592;DHT22;28026;48.562;14.440;2023-07-20T14:44:40;24.40;98.90
41592;DHT22;28026;48.562;14.440;2023-07-20T14:47:11;23.70;98.90
41592;DHT22;28026;48.562;14.440;2023-07-20T14:49:41;23.70;99.60
41592;DHT22;28026;48.562;14.440;2023-07-20T14:52:12;23.70;99.40
41592;DHT22;28026;48.562;14.440;2023-07-20T14:54:43;23.70;99.60
41592;DHT22;28026;48.562;14.440;2023-07-20T14:57:14;24.40;98.90
41592;DHT22;28026;48.562;14.440;2023-07-20T14:59:46;25.00;98.90
41592;DHT22;28026;48.562;14.440;2023-07-20T15:02:17;24.70;98.10
41592;DHT22;28026;48.562;14.440;2023-07-20T15:04:49;24.00;99.90
41592;DHT22;28026;48.562;14.440;2023-07-20T15:07:22;23.90;98.80
41592;DHT22;28026;48.562;14.440;2023-07-20T15:09:53;24.20;99.10
41592;DHT22;28026;48.562;14.440;2023-07-20T15:12:24;23.70;99.00
41592;DHT22;28026;48.562;14.440;2023-07-20T15:15:06;24.20;98.60
41592;DHT22;28026;48.562;14.440;2023-07-20T15:17:41;24.80;98.90
41592;DHT22;28026;48.562;14.440;2023-07-20T15:20:16;24.30;98.00
41592;DHT22;28026;48.562;14.440;2023-07-20T15:22:47;24.00;99.30
41592;DHT22;28026;48.562;14.440;2023-07-20T15:25:18;24.10;99.10
41592;DHT22;28026;48.562;14.440;2023-07-20T15:27:50;23.60;99.40
41592;DHT22;28026;48.562;14.440;2023-07-20T15:30:21;23.70;99.70
41592;DHT22;28026;48.562;14.440;2023-07-20T15:32:52;23.50;99.60
41592;DHT22;28026;48.562;14.440;2023-07-20T15:35:23;23.90;99.70
41592;DHT22;28026;48.562;14.440;2023-07-20T15:37:54;24.00;99.70
41592;DHT22;28026;48.562;14.440;2023-07-20T15:40:25;23.70;99.50
41592;DHT22;28026;48.562;14.440;2023-07-20T15:42:56;23.80;98.90
41592;DHT22;28026;48.562;14.440;2023-07-20T15:45:28;24.10;98.70
41592;DHT22;28026;48.562;14.440;2023-07-20T15:48:00;24.10;98.40
41592;DHT22;28026;48.562;14.440;2023-07-20T15:50:31;24.30;98.10
41592;DHT22;28026;48.562;14.440;2023-07-20T15:53:02;24.20;98.20
41592;DHT22;28026;48.562;14.440;2023-07-20T15:55:33;23.80;98.90
41592;DHT22;28026;48.562;14.440;2023-07-20T15:58:04;23.20;99.30
41592;DHT22;28026;48.562;14.440;2023-07-20T16:00:35;22.90;99.40